^^
B2 Weather Station Historical Data
Daily Summary for August 22, 2018 Units:  English    Metric   Both
Daily Weekly Monthly Yearly Custom
  High: Low: Average:
Temperature: 78.5 °F 55.4 °F 67.4 °F
Dew Point: 62.9 °F 53.1 °F 57.5 °F
Humidity: 94% 43% 73%
Wind Speed: 17.3mph 0mph 6.4mph
Wind Gust: 9.3mph - -
Wind- - NW
Pressure: 30.14 in 29.99 in -
Precipitation: 0 in    
Historical Graphs
 
 
Tabular Data for August 22, 2018
Time Temperature Dew Point Pressure Wind Wind Speed Wind Gust Humidity Rainfall Rate (Hourly) solar
00:04 65.3 °F 62.9 °F 29.99 in NW 4.6 mph 3.3 mph 92% 0 in 0.00 W/m2
00:09 65.2 °F 62.8 °F 29.99 in NW 4.6 mph 1.9 mph 92% 0 in 0.00 W/m2
00:14 65.1 °F 62.7 °F 29.99 in West 3.5 mph 2.6 mph 92% 0 in 0.00 W/m2
00:19 64.9 °F 62.5 °F 30.00 in NW 5 mph 3.3 mph 92% 0 in 0.00 W/m2
00:24 64.8 °F 62.4 °F 30.00 in WNW 4.6 mph 2.7 mph 92% 0 in 0.00 W/m2
00:29 64.7 °F 62.3 °F 30.00 in West 5.8 mph 3.2 mph 92% 0 in 0.00 W/m2
00:34 64.6 °F 62.5 °F 30.00 in WNW 3.5 mph 3.6 mph 93% 0 in 0.00 W/m2
00:39 64.5 °F 62.4 °F 30.00 in West 4.6 mph 3.1 mph 93% 0 in 0.00 W/m2
00:44 64.5 °F 62.4 °F 30.00 in WNW 5.8 mph 1.1 mph 93% 0 in 0.00 W/m2
00:49 64.5 °F 62.4 °F 30.00 in WNW 3.5 mph 2.6 mph 93% 0 in 0.00 W/m2
00:54 64.4 °F 62.3 °F 30.00 in West 5.8 mph 2 mph 93% 0 in 0.00 W/m2
00:59 64.3 °F 62.2 °F 30.00 in WNW 5.8 mph 3.1 mph 93% 0 in 0.00 W/m2
01:04 64.2 °F 62.1 °F 30.00 in NW 3.5 mph 2.6 mph 93% 0 in 0.00 W/m2
01:09 64.1 °F 62 °F 30.00 in WNW 4 mph 3.2 mph 93% 0 in 0.00 W/m2
01:14 64 °F 61.9 °F 30.00 in WNW 3.5 mph 3.8 mph 93% 0 in 0.00 W/m2
01:19 63.9 °F 61.8 °F 30.00 in NW 3.5 mph 2.7 mph 93% 0 in 0.00 W/m2
01:24 63.8 °F 61.7 °F 30.00 in NW 3.5 mph 3.1 mph 93% 0 in 0.00 W/m2
01:29 63.8 °F 61.7 °F 30.00 in NW 5.8 mph 2.1 mph 93% 0 in 0.00 W/m2
01:34 63.7 °F 61.6 °F 30.00 in WNW 4 mph 3.2 mph 93% 0 in 0.00 W/m2
01:39 63.6 °F 61.5 °F 30.00 in WNW 5.8 mph 2.9 mph 93% 0 in 0.00 W/m2
01:44 63.6 °F 61.5 °F 30.00 in West 4.6 mph 2 mph 93% 0 in 0.00 W/m2
01:49 63.5 °F 61.4 °F 30.00 in WNW 6.9 mph 0.9 mph 93% 0 in 0.00 W/m2
01:54 63.4 °F 61.3 °F 30.00 in NW 6.9 mph 3.7 mph 93% 0 in 0.00 W/m2
01:59 63.4 °F 61.6 °F 30.00 in WNW 5.8 mph 4.4 mph 94% 0 in 0.00 W/m2
02:04 63.4 °F 61.6 °F 30.00 in NW 7 mph 4.1 mph 94% 0 in 0.00 W/m2
02:09 63.5 °F 61.7 °F 30.00 in NW 6.9 mph 2.9 mph 94% 0 in 0.00 W/m2
02:14 63.5 °F 61.7 °F 30.00 in NW 6.9 mph 3.8 mph 94% 0 in 0.00 W/m2
02:19 63.5 °F 61.7 °F 30.00 in NW 8.1 mph 3.7 mph 94% 0 in 0.00 W/m2
02:24 63.6 °F 61.8 °F 30.00 in NW 8.1 mph 4.2 mph 94% 0 in 0.00 W/m2
02:29 63.7 °F 61.9 °F 30.00 in WNW 10.4 mph 3.7 mph 94% 0 in 0.00 W/m2
02:34 63.8 °F 61.7 °F 30.01 in WNW 8.1 mph 6 mph 93% 0 in 0.00 W/m2
02:39 63.8 °F 61.7 °F 30.01 in NNW 5.8 mph 4.4 mph 93% 0 in 0.00 W/m2
02:44 63.8 °F 61.7 °F 30.01 in NW 6 mph 6.7 mph 93% 0 in 0.00 W/m2
02:49 63.8 °F 61.7 °F 30.01 in WNW 8.1 mph 5.2 mph 93% 0 in 0.00 W/m2
02:54 63.7 °F 61.6 °F 30.01 in WNW 5.8 mph 6.2 mph 93% 0 in 0.00 W/m2
02:59 63.7 °F 61.6 °F 30.02 in NW 8.1 mph 5.3 mph 93% 0 in 0.00 W/m2
03:04 63.6 °F 61.5 °F 30.02 in NNW 9.2 mph 3.9 mph 93% 0 in 0.00 W/m2
03:09 63.5 °F 61.4 °F 30.02 in NW 6.9 mph 4.7 mph 93% 0 in 0.00 W/m2
03:14 63.3 °F 61.2 °F 30.02 in NNW 8.1 mph 7.5 mph 93% 0 in 0.00 W/m2
03:19 63.1 °F 61 °F 30.02 in West 9.2 mph 5.1 mph 93% 0 in 0.00 W/m2
03:24 62.9 °F 60.5 °F 30.02 in NW 10.4 mph 7.1 mph 92% 0 in 0.00 W/m2
03:29 62.6 °F 59.9 °F 30.03 in NNW 7 mph 6.2 mph 91% 0 in 0.00 W/m2
03:34 62.3 °F 59.3 °F 30.03 in NNW 12 mph 6.6 mph 90% 0 in 0.00 W/m2
03:39 62.1 °F 58.5 °F 30.03 in NNW 9.2 mph 6.1 mph 88% 0 in 0.00 W/m2
03:44 61.9 °F 58.3 °F 30.03 in NW 5.8 mph 3.9 mph 88% 0 in 0.00 W/m2
03:49 61.8 °F 58.2 °F 30.04 in NW 4 mph 3.3 mph 88% 0 in 0.00 W/m2
03:54 61.7 °F 58.7 °F 30.04 in NNW 6.9 mph 4.2 mph 90% 0 in 0.00 W/m2
03:59 61.5 °F 58.8 °F 30.04 in West 5.8 mph 3 mph 91% 0 in 0.00 W/m2
04:04 61.4 °F 58.7 °F 30.04 in NW 3.5 mph 2.8 mph 91% 0 in 0.00 W/m2
04:09 61.1 °F 58.5 °F 30.05 in NW 6.9 mph 3.4 mph 91% 0 in 0.00 W/m2
04:14 60.9 °F 58.3 °F 30.05 in NW 5.8 mph 4.4 mph 91% 0 in 0.00 W/m2
04:19 60.7 °F 58.1 °F 30.05 in WNW 4.6 mph 2.8 mph 91% 0 in 0.00 W/m2
04:24 60.4 °F 57.8 °F 30.05 in NNW 8.1 mph 6.2 mph 91% 0 in 0.00 W/m2
04:29 60.2 °F 57.6 °F 30.05 in NNW 6.9 mph 3.9 mph 91% 0 in 0.00 W/m2
04:34 60 °F 57.4 °F 30.05 in NNW 8.1 mph 3.6 mph 91% 0 in 0.00 W/m2
04:39 59.7 °F 57.1 °F 30.05 in NNW 9.2 mph 5.4 mph 91% 0 in 0.00 W/m2
04:44 59.5 °F 56.9 °F 30.05 in NNW 5.8 mph 3.2 mph 91% 0 in 0.00 W/m2
04:49 59.2 °F 56.6 °F 30.05 in NNW 6.9 mph 4.5 mph 91% 0 in 0.00 W/m2
04:54 59 °F 56.4 °F 30.06 in North 8.1 mph 5.9 mph 91% 0 in 0.00 W/m2
04:59 58.8 °F 56.2 °F 30.06 in NW 6.9 mph 4.8 mph 91% 0 in 0.00 W/m2
05:04 58.7 °F 56.1 °F 30.06 in NNW 8.1 mph 4.1 mph 91% 0 in 0.00 W/m2
05:09 58.5 °F 55.9 °F 30.06 in NW 3.5 mph 3.8 mph 91% 0 in 0.00 W/m2
05:14 58.4 °F 55.8 °F 30.06 in NNW 5 mph 3.2 mph 91% 0 in 0.00 W/m2
05:19 58.2 °F 55.3 °F 30.06 in NNW 4.6 mph 3.2 mph 90% 0 in 0.00 W/m2
05:24 58.1 °F 55.2 °F 30.07 in NW 6.9 mph 3.6 mph 90% 0 in 0.00 W/m2
05:29 58 °F 55.1 °F 30.06 in NW 5 mph 3 mph 90% 0 in 0.00 W/m2
05:34 57.8 °F 55.2 °F 30.06 in WNW 7 mph 2.4 mph 91% 0 in 0.00 W/m2
05:39 57.6 °F 54.7 °F 30.07 in NNW 6.9 mph 4.7 mph 90% 0 in 0.00 W/m2
05:44 57.5 °F 54.9 °F 30.07 in NW 5.8 mph 3.9 mph 91% 0 in 0.00 W/m2
05:49 57.3 °F 54.7 °F 30.07 in NNW 3.5 mph 3 mph 91% 0 in 0.00 W/m2
05:54 57.1 °F 54.5 °F 30.07 in NNW 7 mph 3.2 mph 91% 0 in 0.00 W/m2
05:59 57 °F 54.4 °F 30.07 in NNW 6 mph 6 mph 91% 0 in 0.00 W/m2
06:04 56.9 °F 54.3 °F 30.07 in NW 7 mph 4.2 mph 91% 0 in 0.00 W/m2
06:09 56.8 °F 54.2 °F 30.08 in NNW 6.9 mph 4.6 mph 91% 0 in 0.00 W/m2
06:14 56.7 °F 54.1 °F 30.08 in NNW 6.9 mph 4 mph 91% 0 in 7.00 W/m2
06:19 56.7 °F 54.1 °F 30.08 in NW 6.9 mph 3.9 mph 91% 0 in 11.00 W/m2
06:24 56.6 °F 54 °F 30.08 in NW 5.8 mph 4.9 mph 91% 0 in 14.00 W/m2
06:29 56.6 °F 54 °F 30.09 in NNW 7 mph 3.9 mph 91% 0 in 18.00 W/m2
06:34 56.7 °F 54.1 °F 30.09 in NW 5.8 mph 4.5 mph 91% 0 in 21.00 W/m2
06:39 56.7 °F 54.1 °F 30.09 in NW 6 mph 4.3 mph 91% 0 in 26.00 W/m2
06:41 56.7 °F 54.1 °F 30.09 in NNW 6.9 mph 5.4 mph 91% 0 in 28.00 W/m2
07:04 57.1 °F 54.5 °F 30.09 in NNW 6.9 mph 6.9 mph 91% 0 in 77.00 W/m2
07:06 57.2 °F 54.6 °F 30.09 in NNW 7 mph 4.9 mph 91% 0 in 79.00 W/m2
07:14 57.5 °F 54.6 °F 30.10 in NW 6.9 mph 3.7 mph 90% 0 in 100.00 W/m2
07:19 57.7 °F 54.8 °F 30.10 in NW 5.8 mph 3 mph 90% 0 in 111.00 W/m2
07:24 57.9 °F 55 °F 30.10 in WNW 6.9 mph 3.5 mph 90% 0 in 120.00 W/m2
07:29 58.1 °F 55.2 °F 30.10 in NW 4.6 mph 4 mph 90% 0 in 135.00 W/m2
07:34 58.4 °F 55.5 °F 30.10 in NNW 6.9 mph 4.1 mph 90% 0 in 151.00 W/m2
07:39 58.7 °F 55.5 °F 30.10 in NNW 6.9 mph 4.9 mph 89% 0 in 167.00 W/m2
07:44 59 °F 55.8 °F 30.10 in NNW 6.9 mph 5.7 mph 89% 0 in 165.00 W/m2
07:49 59.3 °F 56.1 °F 30.11 in NNW 8 mph 5.2 mph 89% 0 in 174.00 W/m2
07:54 59.8 °F 56.2 °F 30.11 in NNW 9.2 mph 4.9 mph 88% 0 in 190.00 W/m2
07:59 60.1 °F 56.2 °F 30.11 in NW 8.1 mph 4.5 mph 87% 0 in 221.00 W/m2
08:04 60.5 °F 56.6 °F 30.11 in NW 7 mph 5.4 mph 87% 0 in 253.00 W/m2
08:09 60.9 °F 57 °F 30.11 in NW 10.4 mph 5.9 mph 87% 0 in 279.00 W/m2
08:14 61.3 °F 57.1 °F 30.11 in NW 8.1 mph 4.8 mph 86% 0 in 292.00 W/m2
08:19 61.7 °F 57.1 °F 30.11 in NNW 6 mph 3.6 mph 85% 0 in 292.00 W/m2
08:24 62.1 °F 57.5 °F 30.12 in NNW 6 mph 3 mph 85% 0 in 288.00 W/m2
08:29 62.4 °F 57.5 °F 30.12 in NW 6 mph 0.8 mph 84% 0 in 297.00 W/m2
08:34 62.7 °F 57.8 °F 30.12 in NNW 7 mph 3.1 mph 84% 0 in 341.00 W/m2
08:39 63.1 °F 57.9 °F 30.12 in West 7 mph 5.1 mph 83% 0 in 392.00 W/m2
08:44 63.6 °F 58 °F 30.12 in NNW 8.1 mph 5.6 mph 82% 0 in 413.00 W/m2
08:49 63.8 °F 57.9 °F 30.13 in NW 7 mph 4.2 mph 81% 0 in 427.00 W/m2
08:54 64.1 °F 58.1 °F 30.12 in NW 4.6 mph 1.1 mph 81% 0 in 443.00 W/m2
08:59 64.6 °F 58.3 °F 30.13 in NW 3 mph 3.1 mph 80% 0 in 455.00 W/m2
09:04 64.8 °F 57.8 °F 30.13 in NW 9.2 mph 6.4 mph 78% 0 in 469.00 W/m2
09:09 65.2 °F 58.5 °F 30.13 in NW 9.2 mph 6.3 mph 79% 0 in 483.00 W/m2
09:14 65.7 °F 59 °F 30.13 in NNW 8.1 mph 0.2 mph 79% 0 in 499.00 W/m2
09:19 66.1 °F 59 °F 30.13 in NNW 2.3 mph 1.8 mph 78% 0 in 512.00 W/m2
09:24 66.4 °F 58.6 °F 30.13 in NNW 6.9 mph 0.8 mph 76% 0 in 524.00 W/m2
09:29 66.7 °F 58.9 °F 30.13 in North 3.5 mph   76% 0 in 536.00 W/m2
09:34 66.9 °F 59.1 °F 30.13 in NW 4.6 mph 0.6 mph 76% 0 in 548.00 W/m2
09:39 67.1 °F 58.9 °F 30.13 in NNW 8.1 mph 3.2 mph 75% 0 in 563.00 W/m2
09:44 67.6 °F 59.4 °F 30.13 in NNW 8.1 mph 3.6 mph 75% 0 in 575.00 W/m2
09:49 67.9 °F 59.7 °F 30.13 in NNW 8 mph 5.1 mph 75% 0 in 589.00 W/m2
09:54 68.1 °F 59.5 °F 30.13 in NW 8 mph 1.7 mph 74% 0 in 598.00 W/m2
09:59 68.3 °F 59.7 °F 30.13 in WNW 4.6 mph 0.2 mph 74% 0 in 603.00 W/m2
10:04 68.8 °F 60.2 °F 30.13 in NNW 8.1 mph 2.6 mph 74% 0 in 601.00 W/m2
10:09 69.3 °F 61 °F 30.13 in NW 6 mph 1.9 mph 75% 0 in 598.00 W/m2
10:14 69.6 °F 60.2 °F 30.13 in NW 9.2 mph 3.5 mph 72% 0 in 591.00 W/m2
10:19 69.8 °F 60.8 °F 30.13 in North 10.4 mph 2.2 mph 73% 0 in 585.00 W/m2
10:24 70.2 °F 60.4 °F 30.13 in NW 10.4 mph 3.2 mph 71% 0 in 577.00 W/m2
10:29 70.3 °F 60.8 °F 30.13 in WNW 5 mph 2.7 mph 72% 0 in 568.00 W/m2
10:34 70.6 °F 61.1 °F 30.13 in NNW 3.5 mph 1.4 mph 72% 0 in 564.00 W/m2
10:39 70.7 °F 60.4 °F 30.13 in Calm     70% 0 in 561.00 W/m2
10:44 70.9 °F 60.6 °F 30.13 in North 9.2 mph 2.6 mph 70% 0 in 563.00 W/m2
10:49 71.3 °F 60.6 °F 30.13 in NNW 6.9 mph 5.4 mph 69% 0 in 577.00 W/m2
10:54 71.6 °F 60.9 °F 30.13 in NNW 3.5 mph 1.7 mph 69% 0 in 591.00 W/m2
10:59 71.9 °F 61.6 °F 30.13 in NW 4.6 mph 0.1 mph 70% 0 in 612.00 W/m2
11:04 72 °F 60 °F 30.13 in NW 3.5 mph 0.4 mph 66% 0 in 649.00 W/m2
11:09 72.2 °F 60.2 °F 30.13 in WNW 9.2 mph 3.3 mph 66% 0 in 680.00 W/m2
11:14 72.1 °F 60.5 °F 30.13 in NNW 5.8 mph 0.2 mph 67% 0 in 717.00 W/m2
11:19 72.3 °F 60.7 °F 30.13 in NNW 2.3 mph   67% 0 in 742.00 W/m2
11:24 72.8 °F 61.6 °F 30.13 in NNW 6 mph 2 mph 68% 0 in 772.00 W/m2
11:29 73.1 °F 60.2 °F 30.13 in NW 6.9 mph 4.2 mph 64% 0 in 793.00 W/m2
11:34 73.5 °F 59.7 °F 30.13 in NNW 10.4 mph 6.3 mph 62% 0 in 793.00 W/m2
11:39 73.9 °F 61.4 °F 30.13 in North 11 mph 5.6 mph 65% 0 in 796.00 W/m2
11:44 74 °F 61 °F 30.13 in NNE 12.7 mph 6.8 mph 64% 0 in 807.00 W/m2
11:49 73.9 °F 60.5 °F 30.13 in NNW 12.7 mph 6.3 mph 63% 0 in 809.00 W/m2
11:54 74.2 °F 60.8 °F 30.14 in NNW 7 mph 3.2 mph 63% 0 in 819.00 W/m2
11:59 74.3 °F 59 °F 30.13 in WNW 8.1 mph 7.2 mph 59% 0 in 821.00 W/m2
12:04 74.6 °F 58.8 °F 30.13 in WNW 12.7 mph 6.6 mph 58% 0 in 830.00 W/m2
12:09 74.8 °F 60 °F 30.13 in North 10.4 mph 4.1 mph 60% 0 in 842.00 W/m2
12:14 75 °F 59.7 °F 30.13 in NNW 10.4 mph 7.7 mph 59% 0 in 868.00 W/m2
12:19 74.9 °F 59.6 °F 30.13 in NW 6.9 mph 4.5 mph 59% 0 in 882.00 W/m2
12:24 75 °F 58.2 °F 30.12 in WNW 11.5 mph 8.9 mph 56% 0 in 888.00 W/m2
12:29 75.2 °F 58.4 °F 30.13 in NW 11.5 mph 8.9 mph 56% 0 in 895.00 W/m2
12:34 75.4 °F 59.6 °F 30.12 in WNW 10.4 mph 4.1 mph 58% 0 in 902.00 W/m2
12:39 75.8 °F 59 °F 30.12 in North 9.2 mph 5.5 mph 56% 0 in 911.00 W/m2
12:44 75.7 °F 57.9 °F 30.12 in NNW 9.2 mph 5.9 mph 54% 0 in 914.00 W/m2
12:49 75.5 °F 58.2 °F 30.12 in North 11.5 mph 6.8 mph 55% 0 in 919.00 W/m2
12:54 75.7 °F 59.9 °F 30.12 in North 11.5 mph 7.3 mph 58% 0 in 990.00 W/m2
12:59 75.8 °F 59 °F 30.12 in North 10.4 mph 5.9 mph 56% 0 in 939.00 W/m2
13:04 75.9 °F 56.5 °F 30.12 in WSW 9.2 mph 5.8 mph 51% 0 in 893.00 W/m2
13:09 76.3 °F 56.8 °F 30.12 in NNW 10.4 mph 7.5 mph 51% 0 in 997.00 W/m2
13:14 76.7 °F 58.8 °F 30.12 in North 6 mph 2.6 mph 54% 0 in 251.00 W/m2
13:19 76.1 °F 57.2 °F 30.12 in North 8.1 mph 6.1 mph 52% 0 in 958.00 W/m2
13:24 76.2 °F 58.3 °F 30.12 in NW 11.5 mph 8.1 mph 54% 0 in 976.00 W/m2
13:29 76.8 °F 58.9 °F 30.12 in North 12 mph 9 mph 54% 0 in 1042.00 W/m2
13:34 76.4 °F 57.5 °F 30.12 in NNW 13.8 mph 8.1 mph 52% 0 in 207.00 W/m2
13:39 75.8 °F 58.5 °F 30.12 in NNW 9.2 mph 6.2 mph 55% 0 in 967.00 W/m2
13:44 76.4 °F 57.5 °F 30.11 in NNW 12.7 mph 7.6 mph 52% 0 in 1023.00 W/m2
13:49 76.3 °F 58.4 °F 30.11 in NNE 8.1 mph 7.5 mph 54% 0 in 255.00 W/m2
13:54 75.6 °F 56.7 °F 30.11 in NNW 12.7 mph 6.6 mph 52% 0 in 279.00 W/m2
13:59 76 °F 58.7 °F 30.11 in NNW 10.4 mph 7.3 mph 55% 0 in 251.00 W/m2
14:04 75.8 °F 56.9 °F 30.11 in North 10.4 mph 5.4 mph 52% 0 in 200.00 W/m2
14:09 75.3 °F 57.5 °F 30.11 in North 17.3 mph 8.5 mph 54% 0 in 213.00 W/m2
14:14 75.9 °F 58.1 °F 30.11 in North 8.1 mph 7.2 mph 54% 0 in 875.00 W/m2
14:19 76.8 °F 59.4 °F 30.11 in NNW 11.5 mph 5.7 mph 55% 0 in 290.00 W/m2
14:24 76.6 °F 56.6 °F 30.10 in NW 11.5 mph 6.9 mph 50% 0 in 318.00 W/m2
14:29 76.3 °F 56.3 °F 30.10 in NW 10.4 mph 6.2 mph 50% 0 in 294.00 W/m2
14:34 76.4 °F 56.4 °F 30.10 in NW 15 mph 8.7 mph 50% 0 in 935.00 W/m2
14:39 76.8 °F 56.8 °F 30.10 in NNW 11.5 mph 9 mph 50% 0 in 912.00 W/m2
14:44 77.3 °F 56.6 °F 30.10 in North 10.4 mph 8.2 mph 49% 0 in 861.00 W/m2
14:49 76.7 °F 55.5 °F 30.10 in West 10.4 mph 5.8 mph 48% 0 in 158.00 W/m2
14:54 76.6 °F 54.9 °F 30.10 in NW 9.2 mph 5.2 mph 47% 0 in 837.00 W/m2
14:59 76.8 °F 53.8 °F 30.10 in NW 12.7 mph 7.3 mph 45% 0 in 867.00 W/m2
15:04 77.4 °F 55 °F 30.09 in NW 10.4 mph 6.8 mph 46% 0 in 842.00 W/m2
15:09 77.7 °F 55.3 °F 30.09 in North 13.8 mph 8.7 mph 46% 0 in 826.00 W/m2
15:14 78 °F 54.9 °F 30.09 in North 10.4 mph 9.3 mph 45% 0 in 856.00 W/m2
15:19 78.3 °F 56.4 °F 30.10 in WNW 8.1 mph 4 mph 47% 0 in 584.00 W/m2
15:24 78 °F 56.1 °F 30.10 in NNW 8.1 mph 5.9 mph 47% 0 in 258.00 W/m2
15:29 77.9 °F 53.6 °F 30.09 in NNW 10 mph 6.3 mph 43% 0 in 744.00 W/m2
15:34 78.1 °F 54.4 °F 30.09 in North 11.5 mph 6.7 mph 44% 0 in 745.00 W/m2
15:39 78 °F 54.3 °F 30.09 in NW 11.5 mph 6.5 mph 44% 0 in 694.00 W/m2
15:44 78.3 °F 54.6 °F 30.09 in WSW 10.4 mph 5.3 mph 44% 0 in 722.00 W/m2
15:49 78.5 °F 54.8 °F 30.09 in NW 10.4 mph 7.2 mph 44% 0 in 677.00 W/m2
15:54 77.8 °F 54.8 °F 30.09 in NNW 10.4 mph 7.6 mph 45% 0 in 142.00 W/m2
15:59 77.5 °F 55.7 °F 30.09 in WNW 12.7 mph 6.5 mph 47% 0 in 621.00 W/m2
16:04 77.8 °F 56 °F 30.09 in WNW 7 mph 6.6 mph 47% 0 in 612.00 W/m2
16:09 77.8 °F 54.1 °F 30.09 in WNW 11.5 mph 3.7 mph 44% 0 in 591.00 W/m2
16:14 78.1 °F 54.4 °F 30.09 in WNW 9.2 mph 6.1 mph 44% 0 in 571.00 W/m2
16:19 78 °F 54.9 °F 30.09 in NW 9.2 mph 6.1 mph 45% 0 in 86.00 W/m2
16:24 77 °F 54 °F 30.09 in WNW 8.1 mph 5.9 mph 45% 0 in 91.00 W/m2
16:29 76.7 °F 55.5 °F 30.09 in WNW 11.5 mph 7.6 mph 48% 0 in 538.00 W/m2
16:34 77.2 °F 55.4 °F 30.09 in NNW 9 mph 6.4 mph 47% 0 in 519.00 W/m2
16:39 77.3 °F 55.5 °F 30.09 in NNW 10.4 mph 6.5 mph 47% 0 in 499.00 W/m2
16:44 77.3 °F 54.9 °F 30.09 in NW 10.4 mph 7.5 mph 46% 0 in 480.00 W/m2
16:49 77.2 °F 54.8 °F 30.09 in WNW 10.4 mph 4.8 mph 46% 0 in 473.00 W/m2
16:54 77.4 °F 53.8 °F 30.09 in NNW 9.2 mph 8.2 mph 44% 0 in 454.00 W/m2
16:59 77.4 °F 53.8 °F 30.08 in North 9.2 mph 5.3 mph 44% 0 in 443.00 W/m2
17:04 77.4 °F 55 °F 30.08 in West 10.4 mph 5.4 mph 46% 0 in 427.00 W/m2
17:09 77.4 °F 55 °F 30.08 in WNW 9.2 mph 5.4 mph 46% 0 in 408.00 W/m2
17:14 77.5 °F 55.1 °F 30.08 in WNW 12.7 mph 6.8 mph 46% 0 in 390.00 W/m2
17:19 77.5 °F 55.1 °F 30.08 in WNW 10.4 mph 7.3 mph 46% 0 in 376.00 W/m2
17:24 77.3 °F 55.5 °F 30.08 in WNW 11.5 mph 6.8 mph 47% 0 in 355.00 W/m2
17:29 77.1 °F 55.9 °F 30.08 in West 10.4 mph 6.8 mph 48% 0 in 346.00 W/m2
17:34 77.1 °F 56.5 °F 30.08 in WNW 7 mph 5.5 mph 49% 0 in 327.00 W/m2
17:39 77.1 °F 56.5 °F 30.08 in NNW 9.2 mph 5.6 mph 49% 0 in 309.00 W/m2
17:44 76.8 °F 55.6 °F 30.08 in NNW 11.5 mph 6.7 mph 48% 0 in 297.00 W/m2
17:49 76.7 °F 56.1 °F 30.08 in WNW 9 mph 3.7 mph 49% 0 in 279.00 W/m2
17:54 76.5 °F 56.5 °F 30.08 in WNW 8.1 mph 4.5 mph 50% 0 in 258.00 W/m2
17:59 76.3 °F 56.3 °F 30.08 in NW 10.4 mph 5.2 mph 50% 0 in 234.00 W/m2
18:04 76.2 °F 57.3 °F 30.08 in NNW 8.1 mph 3.7 mph 52% 0 in 200.00 W/m2
18:09 76 °F 56.6 °F 30.08 in WNW 8.1 mph 5.8 mph 51% 0 in 206.00 W/m2
18:14 75.8 °F 56.9 °F 30.08 in WNW 4.6 mph 5.5 mph 52% 0 in 190.00 W/m2
18:19 75.6 °F 56.7 °F 30.08 in WNW 8.1 mph 5.1 mph 52% 0 in 172.00 W/m2
18:24 75.5 °F 57.2 °F 30.08 in WNW 6.9 mph 3.4 mph 53% 0 in 153.00 W/m2
18:29 75.3 °F 57.5 °F 30.08 in WNW 8.1 mph 3 mph 54% 0 in 134.00 W/m2
18:34 75.1 °F 56.8 °F 30.08 in WNW 4 mph 4.7 mph 53% 0 in 120.00 W/m2
18:39 74.7 °F 56.9 °F 30.08 in WNW 8.1 mph 3.1 mph 54% 0 in 40.00 W/m2
18:44 74.4 °F 57.2 °F 30.08 in NW 4.6 mph 1.6 mph 55% 0 in 37.00 W/m2
18:49 74.2 °F 57.5 °F 30.08 in NW 3 mph 2.5 mph 56% 0 in 33.00 W/m2
18:54 73.9 °F 57.7 °F 30.08 in NW 4 mph 2.9 mph 57% 0 in 32.00 W/m2
18:59 73.6 °F 57.4 °F 30.08 in NNW 5.8 mph 2.4 mph 57% 0 in 28.00 W/m2
19:04 73.3 °F 57.1 °F 30.08 in West 6 mph 4.2 mph 57% 0 in 25.00 W/m2
19:09 73.1 °F 57 °F 30.08 in NW 4.6 mph 2.8 mph 57% 0 in 23.00 W/m2
19:14 72.8 °F 57.2 °F 30.08 in WNW 4.6 mph 2.2 mph 58% 0 in 19.00 W/m2
19:19 72.5 °F 57.4 °F 30.08 in WNW 3.5 mph 0.6 mph 59% 0 in 16.00 W/m2
19:24 72.1 °F 57.4 °F 30.08 in NW 3.5 mph 2.7 mph 60% 0 in 12.00 W/m2
19:29 71.7 °F 57.1 °F 30.08 in WNW 3.5 mph 2.2 mph 60% 0 in 9.00 W/m2
19:34 71.4 °F 57.2 °F 30.08 in WNW 3.5 mph 2.3 mph 61% 0 in 5.00 W/m2
19:39 71 °F 56.9 °F 30.08 in WNW 3.5 mph 1.4 mph 61% 0 in 0.00 W/m2
19:44 70.7 °F 57 °F 30.08 in WNW 3.5 mph 1.7 mph 62% 0 in 0.00 W/m2
19:49 70.3 °F 57.1 °F 30.08 in WNW 2.3 mph 0.5 mph 63% 0 in 0.00 W/m2
19:54 70 °F 56.8 °F 30.09 in WNW 3.5 mph 2 mph 63% 0 in 0.00 W/m2
19:59 69.7 °F 57 °F 30.09 in NW 2.3 mph 1.5 mph 64% 0 in 0.00 W/m2
20:04 69.3 °F 57 °F 30.09 in WNW 2.3 mph 1.1 mph 65% 0 in 0.00 W/m2
20:09 69 °F 57.2 °F 30.09 in WNW 2.3 mph 0.4 mph 66% 0 in 0.00 W/m2
20:14 68.8 °F 57 °F 30.09 in WNW 2.3 mph 0.4 mph 66% 0 in 0.00 W/m2
20:19 68.6 °F 56.8 °F 30.09 in WNW 1.2 mph 0.6 mph 66% 0 in 0.00 W/m2
20:24 68.4 °F 57 °F 30.10 in West 3.5 mph 1.5 mph 67% 0 in 0.00 W/m2
20:29 68.3 °F 56.9 °F 30.09 in WNW 3.5 mph 1 mph 67% 0 in 0.00 W/m2
20:34 68.2 °F 56.8 °F 30.10 in WNW 3.5 mph 0.2 mph 67% 0 in 0.00 W/m2
20:39 68.2 °F 56.8 °F 30.10 in NW 2.3 mph 0.8 mph 67% 0 in 0.00 W/m2
20:44 68.1 °F 56.7 °F 30.10 in WNW 2.3 mph 1.1 mph 67% 0 in 0.00 W/m2
20:49 67.9 °F 56.5 °F 30.10 in WNW 1.2 mph 0.3 mph 67% 0 in 0.00 W/m2
20:54 67.6 °F 56.7 °F 30.10 in Calm     68% 0 in 0.00 W/m2
20:59 67.3 °F 57.2 °F 30.10 in Calm     70% 0 in 0.00 W/m2
21:04 66.2 °F 56.9 °F 30.10 in Calm     72% 0 in 0.00 W/m2
21:09 65 °F 56.5 °F 30.11 in Calm     74% 0 in 0.00 W/m2
21:14 64 °F 56.3 °F 30.11 in Calm     76% 0 in 0.00 W/m2
21:19 63 °F 56 °F 30.11 in Calm     78% 0 in 0.00 W/m2
21:24 62.3 °F 55.7 °F 30.11 in Calm     79% 0 in 0.00 W/m2
21:29 61.6 °F 55.7 °F 30.11 in Calm     81% 0 in 0.00 W/m2
21:34 61.1 °F 55.6 °F 30.11 in Calm     82% 0 in 0.00 W/m2
21:39 60.6 °F 55.4 °F 30.11 in Calm     83% 0 in 0.00 W/m2
21:44 60.5 °F 55.6 °F 30.11 in Calm   0.1 mph 84% 0 in 0.00 W/m2
21:49 61.1 °F 55.9 °F 30.11 in Calm     83% 0 in 0.00 W/m2
21:54 62 °F 56.4 °F 30.11 in Calm     82% 0 in 0.00 W/m2
21:59 62.9 °F 56.6 °F 30.12 in Calm     80% 0 in 0.00 W/m2
22:04 63.1 °F 56.1 °F 30.12 in Calm     78% 0 in 0.00 W/m2
22:09 62.3 °F 55.7 °F 30.12 in Calm     79% 0 in 0.00 W/m2
22:14 61.5 °F 55.3 °F 30.12 in Calm     80% 0 in 0.00 W/m2
22:19 60.9 °F 55 °F 30.11 in Calm     81% 0 in 0.00 W/m2
22:24 60.4 °F 54.5 °F 30.11 in Calm     81% 0 in 0.00 W/m2
22:29 59.8 °F 54.3 °F 30.12 in Calm     82% 0 in 0.00 W/m2
22:34 59.3 °F 54.1 °F 30.12 in Calm     83% 0 in 0.00 W/m2
22:39 58.8 °F 54.3 °F 30.12 in Calm     85% 0 in 0.00 W/m2
22:44 58.4 °F 54.2 °F 30.11 in Calm     86% 0 in 0.00 W/m2
22:49 58.3 °F 54.8 °F 30.11 in Calm     88% 0 in 0.00 W/m2
22:54 58.1 °F 54.6 °F 30.11 in Calm     88% 0 in 0.00 W/m2
22:59 57.9 °F 54.4 °F 30.11 in Calm     88% 0 in 0.00 W/m2
23:04 57.6 °F 54.4 °F 30.11 in Calm     89% 0 in 0.00 W/m2
23:09 57.5 °F 54.6 °F 30.11 in Calm     90% 0 in 0.00 W/m2
23:14 57.1 °F 54.2 °F 30.11 in Calm     90% 0 in 0.00 W/m2
23:19 56.7 °F 53.8 °F 30.11 in Calm     90% 0 in 0.00 W/m2
23:24 56.7 °F 54.1 °F 30.11 in Calm     91% 0 in 0.00 W/m2
23:29 56.7 °F 54.1 °F 30.11 in Calm     91% 0 in 0.00 W/m2
23:34 56.5 °F 53.9 °F 30.11 in Calm     91% 0 in 0.00 W/m2
23:39 56.6 °F 54.3 °F 30.11 in Calm     92% 0 in 0.00 W/m2
23:44 56.2 °F 53.9 °F 30.11 in Calm     92% 0 in 0.00 W/m2
23:49 56.1 °F 53.8 °F 30.11 in Calm     92% 0 in 0.00 W/m2
23:54 55.7 °F 53.1 °F 30.11 in Calm     91% 0 in 0.00 W/m2
23:59 55.4 °F 53.1 °F 30.11 in Calm     92% 0 in 0.00 W/m2
Bourbonnais, Illinois, USA
Compliments of Weather Underground - 4 mb